Time;durP1;ratioP1;P1;durP2;ratioP2;P2;SDS_P1;SDS_P2;PMS_P1;PMS_P2;Temp;Humidity;BMP_temperature;BMP_pressure;BME280_temperature;BME280_humidity;BME280_pressure;Samples;Min_cycle;Max_cycle;Signal;HPM_P1;HPM_P2
2023/05/07 00:00:18;;;;;;;12.20;6.30;;;;;;;;;;5008765;28;21041;-64
2023/05/07 00:02:46;;;;;;;10.63;5.53;;;;;;;;;;5008355;28;21144;-64
2023/05/07 00:05:14;;;;;;;9.30;5.90;;;;;;;;;;5008508;28;20524;-64
2023/05/07 00:07:41;;;;;;;10.53;6.27;;;;;;;;;;5008111;28;20501;-64
2023/05/07 00:10:08;;;;;;;10.67;6.17;;;;;;;;;;5008557;28;20490;-63
2023/05/07 00:12:35;;;;;;;10.00;5.23;;;;;;;;;;5017358;28;20454;-64
2023/05/07 00:15:02;;;;;;;9.67;5.93;;;;;;;;;;5028101;28;20467;-64
2023/05/07 00:17:30;;;;;;;15.97;5.73;;;;;;;;;;5027890;28;20513;-64
2023/05/07 00:19:57;;;;;;;11.70;5.17;;;;;;;;;;5028193;28;20446;-64
2023/05/07 00:22:23;;;;;;;9.87;6.10;;;;;;;;;;5027361;28;20493;-64
2023/05/07 00:24:52;;;;;;;9.53;5.43;;;;;;;;;;5028083;28;20437;-64
2023/05/07 00:27:19;;;;;;;9.87;5.37;;;;;;;;;;5028046;28;20496;-64
2023/05/07 00:29:46;;;;;;;8.40;5.63;;;;;;;;;;5027058;28;21212;-64
2023/05/07 00:32:13;;;;;;;16.57;6.37;;;;;;;;;;5010260;28;20438;-63
2023/05/07 00:34:40;;;;;;;12.30;5.43;;;;;;;;;;5027628;28;20427;-64
2023/05/07 00:37:09;;;;;;;11.37;5.57;;;;;;;;;;5027688;28;20436;-64
2023/05/07 00:39:36;;;;;;;7.37;5.20;;;;;;;;;;5027819;28;20430;-64
2023/05/07 00:42:02;;;;;;;11.33;5.57;;;;;;;;;;5027993;28;20438;-64
2023/05/07 00:44:29;;;;;;;8.50;5.30;;;;;;;;;;5027807;28;20563;-64
2023/05/07 00:46:56;;;;;;;10.50;5.30;;;;;;;;;;5028043;28;20873;-64
2023/05/07 00:49:25;;;;;;;7.57;5.07;;;;;;;;;;5010016;28;20450;-64
2023/05/07 00:51:52;;;;;;;7.90;5.10;;;;;;;;;;4990618;28;20464;-63
2023/05/07 00:54:19;;;;;;;9.87;5.77;;;;;;;;;;5008082;28;21153;-64
2023/05/07 00:56:46;;;;;;;9.53;5.73;;;;;;;;;;4990861;28;21292;-63
2023/05/07 00:59:13;;;;;;;9.97;5.70;;;;;;;;;;4974302;28;20439;-63
2023/05/07 01:01:40;;;;;;;9.43;5.50;;;;;;;;;;5008034;28;20914;-64
2023/05/07 01:04:07;;;;;;;9.30;5.60;;;;;;;;;;4999978;28;20450;-63
2023/05/07 01:06:34;;;;;;;7.90;4.93;;;;;;;;;;5010390;28;20446;-63
2023/05/07 01:09:04;;;;;;;10.10;5.50;;;;;;;;;;5011769;28;21341;-64
2023/05/07 01:11:31;;;;;;;10.27;5.53;;;;;;;;;;5011117;28;20521;-64
2023/05/07 01:13:58;;;;;;;9.67;5.50;;;;;;;;;;5011552;28;20439;-64
2023/05/07 01:16:26;;;;;;;9.33;4.93;;;;;;;;;;5011314;28;20972;-64
2023/05/07 01:18:53;;;;;;;8.83;5.10;;;;;;;;;;4993726;28;20455;-63
2023/05/07 01:21:20;;;;;;;9.77;5.27;;;;;;;;;;5011204;28;20434;-63
2023/05/07 01:23:47;;;;;;;10.87;5.23;;;;;;;;;;4981360;28;20441;-64
2023/05/07 01:26:14;;;;;;;10.60;5.40;;;;;;;;;;5031189;28;20431;-64
2023/05/07 01:28:44;;;;;;;10.87;4.80;;;;;;;;;;5013327;28;20445;-64
2023/05/07 01:31:11;;;;;;;7.00;4.60;;;;;;;;;;5013360;28;20452;-64
2023/05/07 01:33:38;;;;;;;9.33;4.90;;;;;;;;;;5013571;28;20488;-64
2023/05/07 01:36:06;;;;;;;9.37;5.03;;;;;;;;;;5013366;28;20485;-63
2023/05/07 01:38:33;;;;;;;9.23;5.27;;;;;;;;;;5030621;28;20422;-64
2023/05/07 01:40:59;;;;;;;8.17;4.93;;;;;;;;;;5029525;28;20484;-64
2023/05/07 02:15:44;;;;;;;7.33;4.73;;;;;;;;;;5009953;28;20574;-66
2023/05/07 02:18:13;;;;;;;7.07;4.40;;;;;;;;;;5010278;28;20521;-65
2023/05/07 02:20:39;;;;;;;7.27;4.27;;;;;;;;;;5010433;28;21000;-65
2023/05/07 02:23:06;;;;;;;7.53;4.40;;;;;;;;;;5009798;28;21382;-65
2023/05/07 02:25:33;;;;;;;8.33;4.90;;;;;;;;;;4992657;28;20526;-65
2023/05/07 02:28:00;;;;;;;8.80;4.70;;;;;;;;;;4992883;28;20500;-66
2023/05/07 02:30:49;;;;;;;7.10;4.47;;;;;;;;;;5004409;28;20443;-65
2023/05/07 02:33:16;;;;;;;7.13;4.50;;;;;;;;;;4996809;28;20447;-63
2023/05/07 02:35:43;;;;;;;9.33;4.60;;;;;;;;;;4992188;28;20509;-65
2023/05/07 02:38:12;;;;;;;7.90;4.53;;;;;;;;;;4992241;28;20436;-65
2023/05/07 02:40:40;;;;;;;8.57;5.03;;;;;;;;;;5011460;28;20444;-65
2023/05/07 02:43:07;;;;;;;10.57;5.30;;;;;;;;;;5011590;28;20443;-65
2023/05/07 02:45:34;;;;;;;10.57;5.00;;;;;;;;;;5012093;28;20446;-65
2023/05/07 02:48:03;;;;;;;10.30;4.77;;;;;;;;;;4995781;28;20457;-67
2023/05/07 02:50:30;;;;;;;8.13;4.97;;;;;;;;;;5003834;28;20845;-65
2023/05/07 02:52:56;;;;;;;7.03;4.37;;;;;;;;;;5008433;28;20457;-65
2023/05/07 02:55:23;;;;;;;6.47;4.30;;;;;;;;;;5009222;28;20481;-65
2023/05/07 02:57:50;;;;;;;7.60;4.43;;;;;;;;;;5009718;28;20442;-65
2023/05/07 03:00:17;;;;;;;8.17;4.63;;;;;;;;;;5009766;28;20430;-65
2023/05/07 03:02:52;;;;;;;9.80;5.10;;;;;;;;;;4992105;28;20516;-65
2023/05/07 03:05:19;;;;;;;9.30;4.50;;;;;;;;;;5008692;28;20945;-65
2023/05/07 03:07:47;;;;;;;7.17;4.33;;;;;;;;;;5009160;28;20431;-65
2023/05/07 03:10:14;;;;;;;8.40;4.00;;;;;;;;;;5008025;28;20439;-65
2023/05/07 03:12:41;;;;;;;8.97;4.60;;;;;;;;;;5007844;28;20447;-65
2023/05/07 03:15:12;;;;;;;10.53;4.57;;;;;;;;;;4991630;28;20458;-65
2023/05/07 03:17:39;;;;;;;10.03;4.57;;;;;;;;;;5008116;28;20550;-64
2023/05/07 03:20:06;;;;;;;9.13;4.63;;;;;;;;;;5009220;28;20420;-65
2023/05/07 03:22:34;;;;;;;8.10;4.90;;;;;;;;;;5009033;28;20479;-65
2023/05/07 03:25:01;;;;;;;7.13;4.30;;;;;;;;;;4991414;28;20725;-65
2023/05/07 03:27:27;;;;;;;6.70;4.27;;;;;;;;;;5008807;28;20495;-65
2023/05/07 03:29:54;;;;;;;7.43;4.47;;;;;;;;;;5009089;28;20415;-65
2023/05/07 03:32:21;;;;;;;8.17;4.53;;;;;;;;;;4991224;28;20471;-65
2023/05/07 03:34:47;;;;;;;7.67;4.23;;;;;;;;;;4991099;28;20443;-65
2023/05/07 03:37:14;;;;;;;7.67;4.60;;;;;;;;;;4991005;28;20541;-65
2023/05/07 03:39:42;;;;;;;8.37;4.97;;;;;;;;;;4994123;28;20500;-65
2023/05/07 03:42:09;;;;;;;8.97;4.87;;;;;;;;;;5011023;28;20540;-65
2023/05/07 03:44:36;;;;;;;7.60;5.30;;;;;;;;;;5010896;28;20446;-64
2023/05/07 03:47:03;;;;;;;8.13;4.93;;;;;;;;;;5028172;28;20434;-65
2023/05/07 03:49:30;;;;;;;7.40;4.83;;;;;;;;;;5010569;28;20450;-65
2023/05/07 03:51:58;;;;;;;12.03;5.30;;;;;;;;;;5008557;28;20489;-65
2023/05/07 03:54:25;;;;;;;7.17;4.90;;;;;;;;;;5027701;28;20450;-64
2023/05/07 03:56:51;;;;;;;11.30;5.30;;;;;;;;;;5042627;28;20572;-64
2023/05/07 03:59:18;;;;;;;6.97;5.13;;;;;;;;;;5027497;28;20505;-63
2023/05/07 04:01:47;;;;;;;7.57;4.57;;;;;;;;;;5009720;28;20438;-64
2023/05/07 04:04:16;;;;;;;10.60;5.43;;;;;;;;;;5009699;28;20461;-63
2023/05/07 04:06:44;;;;;;;8.77;5.20;;;;;;;;;;5027210;28;20470;-63
2023/05/07 04:09:11;;;;;;;9.40;5.50;;;;;;;;;;4993077;28;20682;-64
2023/05/07 04:11:39;;;;;;;8.43;4.57;;;;;;;;;;5027345;28;20462;-63
2023/05/07 04:14:08;;;;;;;8.33;5.27;;;;;;;;;;5001809;28;20490;-63
2023/05/07 04:16:36;;;;;;;10.57;5.40;;;;;;;;;;5017687;28;20585;-63
2023/05/07 04:19:03;;;;;;;9.23;5.20;;;;;;;;;;5009896;28;20441;-63
2023/05/07 04:21:34;;;;;;;10.67;5.27;;;;;;;;;;5027931;28;20444;-63
2023/05/07 04:24:00;;;;;;;9.57;5.77;;;;;;;;;;5007066;28;20449;-63
2023/05/07 04:26:28;;;;;;;8.20;5.67;;;;;;;;;;5009350;28;20497;-63
2023/05/07 04:28:55;;;;;;;11.53;5.57;;;;;;;;;;5007961;28;20452;-63
2023/05/07 04:31:21;;;;;;;10.23;5.13;;;;;;;;;;5026454;28;20567;-64
2023/05/07 04:33:51;;;;;;;7.03;5.20;;;;;;;;;;5010306;28;20199;-65
2023/05/07 04:36:19;;;;;;;7.83;5.37;;;;;;;;;;5028786;28;21286;-65
2023/05/07 04:38:54;;;;;;;7.20;5.07;;;;;;;;;;5021444;28;20194;-65
2023/05/07 04:41:22;;;;;;;7.73;5.23;;;;;;;;;;5025731;28;20199;-65
2023/05/07 04:43:49;;;;;;;7.80;5.10;;;;;;;;;;5012509;28;20250;-64
2023/05/07 04:46:17;;;;;;;9.43;5.40;;;;;;;;;;5023092;28;20557;-63
2023/05/07 04:48:47;;;;;;;6.80;4.63;;;;;;;;;;5017958;28;20685;-64
2023/05/07 04:51:15;;;;;;;7.00;4.70;;;;;;;;;;5010276;28;20191;-64
2023/05/07 04:53:43;;;;;;;6.57;4.40;;;;;;;;;;5027232;28;20195;-64
2023/05/07 04:56:13;;;;;;;10.57;4.20;;;;;;;;;;5025738;28;20617;-64
2023/05/07 04:58:42;;;;;;;7.93;4.40;;;;;;;;;;5037909;28;20210;-63
2023/05/07 05:01:10;;;;;;;8.23;4.57;;;;;;;;;;5010052;28;20223;-64
2023/05/07 05:03:39;;;;;;;7.03;3.90;;;;;;;;;;4989426;28;20196;-64
2023/05/07 05:06:07;;;;;;;8.17;4.90;;;;;;;;;;5028449;28;20179;-63
2023/05/07 05:08:34;;;;;;;7.47;3.87;;;;;;;;;;5026686;28;20191;-62
2023/05/07 05:11:02;;;;;;;6.37;3.57;;;;;;;;;;5009312;28;20670;-65
2023/05/07 05:13:32;;;;;;;8.17;3.90;;;;;;;;;;5009947;28;20300;-64
2023/05/07 05:16:02;;;;;;;6.10;3.40;;;;;;;;;;5014022;28;20261;-65
2023/05/07 05:18:32;;;;;;;5.50;3.90;;;;;;;;;;5013544;28;20218;-65
2023/05/07 05:20:59;;;;;;;9.67;4.10;;;;;;;;;;5007688;28;20191;-65
2023/05/07 05:23:27;;;;;;;8.07;4.20;;;;;;;;;;5021623;28;20222;-65
2023/05/07 05:25:57;;;;;;;7.17;4.40;;;;;;;;;;5009167;28;20199;-64
2023/05/07 05:28:27;;;;;;;7.00;4.10;;;;;;;;;;5037964;28;20202;-64
2023/05/07 05:30:57;;;;;;;6.37;4.27;;;;;;;;;;5009364;28;20206;-64
2023/05/07 05:33:26;;;;;;;9.13;4.20;;;;;;;;;;5007792;28;20211;-65
2023/05/07 05:35:56;;;;;;;8.37;4.43;;;;;;;;;;5008691;28;20208;-64
2023/05/07 05:38:23;;;;;;;5.17;3.20;;;;;;;;;;5025510;28;20313;-64
2023/05/07 05:40:50;;;;;;;7.90;3.63;;;;;;;;;;5009337;28;20716;-65
2023/05/07 05:43:17;;;;;;;7.47;3.80;;;;;;;;;;5008915;28;20574;-64
2023/05/07 05:45:44;;;;;;;6.33;3.43;;;;;;;;;;5027891;28;20195;-64
2023/05/07 05:48:11;;;;;;;4.17;2.63;;;;;;;;;;4983442;28;20220;-64
2023/05/07 05:50:38;;;;;;;4.67;2.50;;;;;;;;;;4998352;28;21122;-63
2023/05/07 05:53:06;;;;;;;5.70;2.70;;;;;;;;;;5026437;28;20210;-64
2023/05/07 05:55:33;;;;;;;3.83;2.30;;;;;;;;;;5008786;28;20202;-63
2023/05/07 05:58:00;;;;;;;2.90;2.20;;;;;;;;;;4985239;28;20224;-64
2023/05/07 06:00:28;;;;;;;6.10;2.50;;;;;;;;;;5009220;28;20195;-65
2023/05/07 06:03:00;;;;;;;3.43;2.23;;;;;;;;;;5025697;28;20859;-67
2023/05/07 06:05:28;;;;;;;3.10;2.50;;;;;;;;;;5040932;28;20190;-65
2023/05/07 06:07:56;;;;;;;3.67;2.30;;;;;;;;;;5012953;28;20192;-64
2023/05/07 06:10:24;;;;;;;4.43;2.20;;;;;;;;;;5009110;28;20195;-64
2023/05/07 06:12:51;;;;;;;4.13;2.43;;;;;;;;;;5005632;28;20670;-65
2023/05/07 06:15:18;;;;;;;4.47;2.27;;;;;;;;;;5008510;28;20214;-65
2023/05/07 06:17:45;;;;;;;4.87;2.60;;;;;;;;;;5010498;28;20704;-64
2023/05/07 06:20:12;;;;;;;4.93;2.63;;;;;;;;;;5026511;28;20242;-64
2023/05/07 06:22:39;;;;;;;5.03;2.30;;;;;;;;;;5015023;28;20241;-64
2023/05/07 06:25:08;;;;;;;4.70;2.57;;;;;;;;;;5015736;28;20206;-64
2023/05/07 06:27:39;;;;;;;3.57;2.37;;;;;;;;;;5001455;28;20222;-65
2023/05/07 06:30:06;;;;;;;4.43;2.57;;;;;;;;;;5006608;28;20195;-65
2023/05/07 06:32:34;;;;;;;3.00;2.30;;;;;;;;;;5010037;28;20195;-67
2023/05/07 06:35:00;;;;;;;3.83;2.10;;;;;;;;;;5008971;28;20621;-65
2023/05/07 06:37:27;;;;;;;3.50;2.50;;;;;;;;;;5027101;28;20330;-66
2023/05/07 06:40:01;;;;;;;3.33;2.10;;;;;;;;;;5002971;28;20208;-66
2023/05/07 06:42:30;;;;;;;5.70;2.13;;;;;;;;;;5022405;28;20685;-67
2023/05/07 06:45:04;;;;;;;5.10;2.13;;;;;;;;;;5000607;28;20202;-66
2023/05/07 06:47:31;;;;;;;2.57;1.80;;;;;;;;;;5013852;28;20249;-69
2023/05/07 06:49:58;;;;;;;4.27;2.10;;;;;;;;;;5026582;28;20242;-65
2023/05/07 06:52:29;;;;;;;3.00;2.00;;;;;;;;;;5007530;28;20810;-65
2023/05/07 06:54:56;;;;;;;5.20;2.00;;;;;;;;;;5007994;28;20224;-65
2023/05/07 06:57:25;;;;;;;2.87;2.23;;;;;;;;;;5008237;28;20223;-65
2023/05/07 06:59:52;;;;;;;4.17;2.20;;;;;;;;;;5003040;28;20231;-69
2023/05/07 07:02:21;;;;;;;3.80;2.00;;;;;;;;;;5042318;28;20192;-65
2023/05/07 07:04:49;;;;;;;3.40;2.13;;;;;;;;;;5034038;28;20211;-65
2023/05/07 07:07:16;;;;;;;2.50;1.87;;;;;;;;;;5022602;28;20206;-65
2023/05/07 07:09:46;;;;;;;3.20;2.00;;;;;;;;;;5024649;28;20735;-65
2023/05/07 07:12:16;;;;;;;3.37;2.07;;;;;;;;;;4995298;28;20571;-66
2023/05/07 07:14:44;;;;;;;3.57;1.87;;;;;;;;;;5011303;28;20546;-67
2023/05/07 07:17:13;;;;;;;2.87;1.90;;;;;;;;;;5013719;28;20322;-66
2023/05/07 07:19:39;;;;;;;4.67;2.00;;;;;;;;;;5023113;28;20195;-65
2023/05/07 07:22:07;;;;;;;3.63;2.00;;;;;;;;;;5009141;28;20214;-65
2023/05/07 07:24:34;;;;;;;4.13;1.93;;;;;;;;;;5018868;28;20250;-65
2023/05/07 07:27:04;;;;;;;2.83;1.80;;;;;;;;;;5014004;28;20203;-65
2023/05/07 07:29:33;;;;;;;3.23;2.00;;;;;;;;;;5013615;28;20681;-65
2023/05/07 07:32:00;;;;;;;3.90;2.20;;;;;;;;;;5013224;28;20195;-65
2023/05/07 07:34:27;;;;;;;4.27;2.10;;;;;;;;;;5013357;28;20203;-65
2023/05/07 07:36:55;;;;;;;4.27;2.10;;;;;;;;;;5013189;28;20633;-65
2023/05/07 07:39:23;;;;;;;5.03;2.20;;;;;;;;;;5012659;28;20307;-65
2023/05/07 07:41:53;;;;;;;4.03;2.00;;;;;;;;;;5013831;28;20199;-65
2023/05/07 07:44:21;;;;;;;5.90;2.13;;;;;;;;;;5013615;28;20681;-65
2023/05/07 07:46:52;;;;;;;4.43;2.23;;;;;;;;;;5012982;28;20766;-65
2023/05/07 07:49:20;;;;;;;5.50;2.00;;;;;;;;;;5013282;28;20273;-65
2023/05/07 07:51:47;;;;;;;4.03;2.17;;;;;;;;;;5013391;28;20188;-66
2023/05/07 07:54:15;;;;;;;3.10;2.00;;;;;;;;;;5013035;28;20196;-65
2023/05/07 07:56:42;;;;;;;4.47;2.03;;;;;;;;;;5013705;28;20241;-65
2023/05/07 07:59:11;;;;;;;3.27;2.00;;;;;;;;;;5013532;28;20249;-66
2023/05/07 08:01:39;;;;;;;3.10;1.97;;;;;;;;;;5013078;28;20270;-65
2023/05/07 08:04:07;;;;;;;2.80;2.10;;;;;;;;;;5012808;28;20195;-66
2023/05/07 08:06:37;;;;;;;4.87;2.20;;;;;;;;;;5013837;28;20187;-66
2023/05/07 08:09:05;;;;;;;3.50;2.27;;;;;;;;;;5013572;28;20203;-64
2023/05/07 08:11:32;;;;;;;3.30;2.00;;;;;;;;;;5004569;28;20761;-64
2023/05/07 08:13:59;;;;;;;4.70;1.90;;;;;;;;;;5013330;28;20195;-65
2023/05/07 08:16:27;;;;;;;3.17;1.40;;;;;;;;;;5031243;28;20288;-65
2023/05/07 08:18:54;;;;;;;2.50;1.73;;;;;;;;;;5030835;28;20594;-65
2023/05/07 08:21:21;;;;;;;2.13;1.60;;;;;;;;;;5012925;28;20610;-65
2023/05/07 08:23:48;;;;;;;3.87;1.97;;;;;;;;;;4993535;28;20200;-65
2023/05/07 08:26:15;;;;;;;3.73;1.87;;;;;;;;;;5025953;28;20187;-65
2023/05/07 08:28:42;;;;;;;2.80;1.80;;;;;;;;;;5009005;28;20195;-64
2023/05/07 08:31:09;;;;;;;3.40;1.90;;;;;;;;;;5025449;28;20546;-65
2023/05/07 08:33:39;;;;;;;4.00;1.70;;;;;;;;;;5044876;28;20191;-65
2023/05/07 08:36:09;;;;;;;4.03;1.80;;;;;;;;;;5013270;28;20214;-65
2023/05/07 08:38:36;;;;;;;3.40;1.57;;;;;;;;;;5016724;28;20229;-65
2023/05/07 08:41:03;;;;;;;4.40;1.93;;;;;;;;;;5047621;28;20207;-65
2023/05/07 08:43:30;;;;;;;2.67;1.83;;;;;;;;;;5021438;28;20551;-66
2023/05/07 08:45:58;;;;;;;3.43;2.23;;;;;;;;;;5016098;28;20599;-65
2023/05/07 08:48:29;;;;;;;4.60;1.90;;;;;;;;;;5013157;28;20187;-64
2023/05/07 08:51:04;;;;;;;2.20;1.70;;;;;;;;;;5001102;28;20290;-64
2023/05/07 08:53:32;;;;;;;4.33;1.80;;;;;;;;;;4998398;28;20198;-62
2023/05/07 08:55:59;;;;;;;3.80;1.80;;;;;;;;;;5007345;28;20183;-64
2023/05/07 08:58:27;;;;;;;2.67;1.90;;;;;;;;;;5007874;28;20659;-66
2023/05/07 09:00:55;;;;;;;3.57;1.70;;;;;;;;;;4991730;28;20748;-65
2023/05/07 09:03:25;;;;;;;4.37;1.53;;;;;;;;;;4993077;28;20199;-65
2023/05/07 09:05:54;;;;;;;2.93;1.60;;;;;;;;;;5025724;28;20190;-64
2023/05/07 09:08:26;;;;;;;2.10;1.67;;;;;;;;;;5011908;28;20213;-63
2023/05/07 09:10:59;;;;;;;3.43;1.77;;;;;;;;;;5000306;28;20673;-63
2023/05/07 09:13:26;;;;;;;3.10;1.43;;;;;;;;;;5035933;28;20550;-65
2023/05/07 09:15:54;;;;;;;2.97;1.90;;;;;;;;;;5023599;28;20222;-65
2023/05/07 09:18:23;;;;;;;2.73;1.50;;;;;;;;;;5009545;28;20245;-58
2023/05/07 09:20:51;;;;;;;2.13;1.50;;;;;;;;;;5011791;28;20207;-58
2023/05/07 09:23:20;;;;;;;1.67;1.40;;;;;;;;;;5000367;28;20243;-59
2023/05/07 09:25:47;;;;;;;2.47;1.60;;;;;;;;;;5022905;28;20287;-59
2023/05/07 09:28:24;;;;;;;1.97;1.40;;;;;;;;;;5005076;28;20188;-58
2023/05/07 09:30:53;;;;;;;2.30;1.10;;;;;;;;;;5015835;28;20228;-58
2023/05/07 09:33:20;;;;;;;2.53;1.40;;;;;;;;;;5025354;28;20270;-59
2023/05/07 09:35:53;;;;;;;3.10;1.47;;;;;;;;;;4985974;28;20226;-58
2023/05/07 09:38:21;;;;;;;3.27;1.50;;;;;;;;;;5015655;28;20346;-58
2023/05/07 09:41:04;;;;;;;3.67;1.53;;;;;;;;;;5016948;28;20235;-58
2023/05/07 09:43:34;;;;;;;4.90;1.70;;;;;;;;;;5024289;28;20563;-59
2023/05/07 09:46:05;;;;;;;2.40;1.40;;;;;;;;;;5013686;28;20285;-60
2023/05/07 09:48:38;;;;;;;4.73;1.50;;;;;;;;;;5020833;28;20560;-60
2023/05/07 09:51:12;;;;;;;5.17;1.30;;;;;;;;;;5005923;28;20713;-58
2023/05/07 09:53:41;;;;;;;2.07;1.37;;;;;;;;;;5012899;28;20196;-58
2023/05/07 09:56:12;;;;;;;3.43;1.47;;;;;;;;;;5020668;28;20279;-58
2023/05/07 09:58:39;;;;;;;6.00;1.60;;;;;;;;;;5007902;28;20226;-58
2023/05/07 10:01:07;;;;;;;4.13;2.00;;;;;;;;;;5011923;28;20231;-57
2023/05/07 10:03:34;;;;;;;3.40;1.80;;;;;;;;;;5028283;28;20222;-57
2023/05/07 10:06:04;;;;;;;2.83;2.00;;;;;;;;;;5029110;28;20191;-57
2023/05/07 10:08:32;;;;;;;3.87;1.80;;;;;;;;;;5011965;28;20639;-58
2023/05/07 10:11:01;;;;;;;2.90;1.63;;;;;;;;;;5011958;28;20200;-57
2023/05/07 10:13:29;;;;;;;3.73;1.50;;;;;;;;;;5027602;28;20202;-58
2023/05/07 10:15:58;;;;;;;2.50;1.53;;;;;;;;;;5029645;28;20187;-58
2023/05/07 10:18:34;;;;;;;3.63;1.60;;;;;;;;;;5015686;28;20244;-58
2023/05/07 10:21:10;;;;;;;2.87;1.70;;;;;;;;;;4988146;28;20267;-58
2023/05/07 10:23:37;;;;;;;2.80;1.50;;;;;;;;;;5010345;28;20318;-57
2023/05/07 10:26:05;;;;;;;3.07;1.47;;;;;;;;;;5027661;28;20199;-57
2023/05/07 10:28:34;;;;;;;3.73;1.70;;;;;;;;;;5011228;28;20273;-57
2023/05/07 10:31:18;;;;;;;3.63;1.90;;;;;;;;;;5027669;28;20199;-57
2023/05/07 10:33:47;;;;;;;3.33;1.70;;;;;;;;;;5027476;28;20183;-57
2023/05/07 10:36:15;;;;;;;2.93;1.80;;;;;;;;;;4992469;28;20216;-57
2023/05/07 10:38:44;;;;;;;5.13;1.70;;;;;;;;;;5008602;28;20248;-57
2023/05/07 10:41:12;;;;;;;3.03;1.50;;;;;;;;;;5006859;28;20200;-57
2023/05/07 10:43:42;;;;;;;2.77;1.67;;;;;;;;;;4994473;28;20199;-57
2023/05/07 10:46:16;;;;;;;3.60;1.77;;;;;;;;;;4995243;28;20298;-57
2023/05/07 10:49:08;;;;;;;2.30;1.47;;;;;;;;;;4996899;28;20285;-57
2023/05/07 10:51:46;;;;;;;1.70;1.30;;;;;;;;;;5006288;28;20579;-57
2023/05/07 10:54:23;;;;;;;3.50;1.40;;;;;;;;;;4976702;28;20196;-57
2023/05/07 10:57:23;;;;;;;2.00;1.50;;;;;;;;;;4990975;28;20207;-58
2023/05/07 10:59:51;;;;;;;1.30;1.20;;;;;;;;;;4990945;28;20279;-58
2023/05/07 11:02:31;;;;;;;1.83;1.40;;;;;;;;;;4990809;28;20211;-58
2023/05/07 11:05:24;;;;;;;2.07;1.40;;;;;;;;;;4991594;28;20196;-58
2023/05/07 11:08:16;;;;;;;1.57;1.30;;;;;;;;;;4991144;28;20564;-58
2023/05/07 11:11:04;;;;;;;3.73;1.40;;;;;;;;;;4996767;28;20204;-59
2023/05/07 11:13:45;;;;;;;3.30;1.53;;;;;;;;;;5010315;28;20199;-58
2023/05/07 11:16:35;;;;;;;2.57;1.70;;;;;;;;;;5010033;28;20284;-58
2023/05/07 11:19:18;;;;;;;1.70;1.40;;;;;;;;;;5009676;28;20223;-58
2023/05/07 11:21:50;;;;;;;4.13;1.70;;;;;;;;;;4993616;28;20337;-58
2023/05/07 11:24:44;;;;;;;4.20;1.50;;;;;;;;;;5026228;28;20682;-58
2023/05/07 11:27:12;;;;;;;2.37;1.57;;;;;;;;;;5008543;28;20286;-59
2023/05/07 11:29:39;;;;;;;2.93;1.70;;;;;;;;;;5009845;28;20223;-58
2023/05/07 11:32:10;;;;;;;2.30;1.70;;;;;;;;;;5010045;28;20558;-58
2023/05/07 11:34:43;;;;;;;3.10;1.80;;;;;;;;;;4983141;28;20618;-58
2023/05/07 11:37:12;;;;;;;3.80;1.60;;;;;;;;;;5010340;28;20195;-58
2023/05/07 11:39:54;;;;;;;3.10;1.70;;;;;;;;;;5008805;28;20191;-58
2023/05/07 11:42:30;;;;;;;2.93;1.60;;;;;;;;;;5026079;28;20207;-59
2023/05/07 11:44:58;;;;;;;3.97;2.00;;;;;;;;;;5027675;28;20190;-59
2023/05/07 11:47:27;;;;;;;3.10;1.50;;;;;;;;;;5027338;28;20616;-60
2023/05/07 11:49:55;;;;;;;3.87;1.80;;;;;;;;;;5027026;28;20217;-59
2023/05/07 11:52:22;;;;;;;3.47;1.90;;;;;;;;;;5026989;28;20194;-60
2023/05/07 11:54:54;;;;;;;3.13;1.50;;;;;;;;;;5027676;28;20520;-58
2023/05/07 11:57:21;;;;;;;3.53;1.60;;;;;;;;;;5025568;28;20187;-59
2023/05/07 11:59:52;;;;;;;2.77;1.50;;;;;;;;;;5027269;28;20179;-59
2023/05/07 12:02:19;;;;;;;2.90;1.57;;;;;;;;;;5027319;28;20207;-60
2023/05/07 12:04:46;;;;;;;4.50;1.70;;;;;;;;;;5026907;28;20191;-59
2023/05/07 12:07:14;;;;;;;3.87;1.73;;;;;;;;;;5027369;28;20199;-60
2023/05/07 12:09:41;;;;;;;4.13;1.83;;;;;;;;;;5027177;28;20246;-59
2023/05/07 12:12:08;;;;;;;4.27;1.87;;;;;;;;;;5026896;28;20670;-59
2023/05/07 12:14:39;;;;;;;8.47;1.80;;;;;;;;;;5009853;28;20213;-58
2023/05/07 12:17:10;;;;;;;3.83;1.90;;;;;;;;;;5026238;28;20207;-58
2023/05/07 12:19:39;;;;;;;1.83;1.47;;;;;;;;;;5026697;28;20225;-59
2023/05/07 12:22:09;;;;;;;3.27;1.83;;;;;;;;;;5027586;28;20836;-59
2023/05/07 12:24:47;;;;;;;1.77;1.50;;;;;;;;;;5030780;28;20550;-59
2023/05/07 12:27:16;;;;;;;6.47;1.93;;;;;;;;;;5017607;28;20180;-59
2023/05/07 12:29:47;;;;;;;3.60;1.77;;;;;;;;;;5012693;28;20611;-58
2023/05/07 12:32:15;;;;;;;2.23;1.53;;;;;;;;;;5029867;28;20187;-58
2023/05/07 12:34:41;;;;;;;2.67;1.70;;;;;;;;;;5028502;28;20187;-58
2023/05/07 12:37:12;;;;;;;5.43;2.30;;;;;;;;;;5030119;28;20195;-59
2023/05/07 12:39:48;;;;;;;2.87;1.90;;;;;;;;;;5029814;28;20227;-66
2023/05/07 12:42:16;;;;;;;2.50;1.87;;;;;;;;;;5030358;28;20199;-68
2023/05/07 12:44:43;;;;;;;3.33;1.97;;;;;;;;;;5012574;28;20199;-67
2023/05/07 12:47:10;;;;;;;3.37;1.70;;;;;;;;;;5012624;28;20226;-67
2023/05/07 12:49:38;;;;;;;3.97;1.53;;;;;;;;;;5019827;28;20604;-68
2023/05/07 12:52:05;;;;;;;2.33;1.73;;;;;;;;;;5030844;28;20195;-67
2023/05/07 12:54:32;;;;;;;2.80;2.00;;;;;;;;;;5013363;28;20261;-67
2023/05/07 12:57:00;;;;;;;4.80;1.60;;;;;;;;;;5030318;28;20202;-67
2023/05/07 12:59:37;;;;;;;2.67;1.60;;;;;;;;;;5033074;28;20215;-67
2023/05/07 13:02:05;;;;;;;3.03;1.67;;;;;;;;;;5033773;28;20198;-67
2023/05/07 13:04:34;;;;;;;3.30;2.03;;;;;;;;;;5007930;28;20196;-67
2023/05/07 13:07:02;;;;;;;2.33;1.70;;;;;;;;;;5032411;28;20318;-67
2023/05/07 13:09:29;;;;;;;3.07;1.70;;;;;;;;;;5034303;28;20599;-66
2023/05/07 13:11:55;;;;;;;3.93;1.60;;;;;;;;;;5034088;28;20196;-67
2023/05/07 13:14:22;;;;;;;2.93;1.90;;;;;;;;;;5034172;28;20299;-67
2023/05/07 13:16:49;;;;;;;2.33;1.60;;;;;;;;;;5034178;28;20211;-67
2023/05/07 13:19:17;;;;;;;5.70;1.90;;;;;;;;;;5015839;28;20211;-66
2023/05/07 13:21:44;;;;;;;2.53;1.70;;;;;;;;;;5031663;28;20610;-67
2023/05/07 13:24:10;;;;;;;3.50;1.80;;;;;;;;;;5033236;28;20179;-67
2023/05/07 13:26:37;;;;;;;3.63;1.73;;;;;;;;;;5033223;28;20200;-67
2023/05/07 13:29:04;;;;;;;2.10;1.60;;;;;;;;;;5034163;28;20206;-66
2023/05/07 13:31:31;;;;;;;4.63;1.70;;;;;;;;;;5033218;28;20184;-66
2023/05/07 13:33:58;;;;;;;2.17;1.40;;;;;;;;;;5015493;28;20268;-66
2023/05/07 13:36:26;;;;;;;1.93;1.57;;;;;;;;;;5029656;28;20577;-67
2023/05/07 13:38:53;;;;;;;5.57;2.00;;;;;;;;;;5026620;28;20760;-68
2023/05/07 13:41:20;;;;;;;2.37;1.80;;;;;;;;;;5030713;28;20310;-66
2023/05/07 13:43:47;;;;;;;5.40;2.20;;;;;;;;;;5033828;28;20270;-67
2023/05/07 13:46:14;;;;;;;3.87;2.03;;;;;;;;;;5033580;28;20191;-67
2023/05/07 13:48:41;;;;;;;3.77;2.13;;;;;;;;;;5015371;28;20223;-67
2023/05/07 13:51:07;;;;;;;3.00;2.10;;;;;;;;;;5033038;28;20641;-67
2023/05/07 13:53:35;;;;;;;3.60;2.23;;;;;;;;;;5014546;28;20192;-67
2023/05/07 13:56:04;;;;;;;3.57;2.10;;;;;;;;;;5033527;28;20214;-67
2023/05/07 13:58:31;;;;;;;4.73;2.50;;;;;;;;;;5033303;28;20207;-67
2023/05/07 14:00:59;;;;;;;4.37;2.10;;;;;;;;;;5015763;28;20218;-68
2023/05/07 14:03:26;;;;;;;6.53;2.70;;;;;;;;;;5033045;28;20692;-67
2023/05/07 14:05:53;;;;;;;7.13;2.50;;;;;;;;;;5033009;28;20195;-68
2023/05/07 14:08:23;;;;;;;3.30;2.20;;;;;;;;;;5032550;28;20195;-68
2023/05/07 14:10:49;;;;;;;5.27;2.20;;;;;;;;;;5014597;28;20208;-68
2023/05/07 14:13:16;;;;;;;4.50;2.33;;;;;;;;;;5031480;28;20191;-66
2023/05/07 14:15:48;;;;;;;4.57;2.40;;;;;;;;;;5032245;28;20199;-67
2023/05/07 14:18:15;;;;;;;4.23;2.40;;;;;;;;;;5032597;28;20287;-68
2023/05/07 14:20:48;;;;;;;3.73;2.23;;;;;;;;;;4999275;28;20699;-67
2023/05/07 14:23:19;;;;;;;6.23;2.63;;;;;;;;;;5014742;28;20314;-68
2023/05/07 14:25:52;;;;;;;5.50;2.90;;;;;;;;;;5001605;28;20311;-68
2023/05/07 14:28:22;;;;;;;3.97;2.33;;;;;;;;;;4982349;28;20249;-68
2023/05/07 14:30:57;;;;;;;4.03;2.40;;;;;;;;;;5008939;28;20249;-67
2023/05/07 14:33:54;;;;;;;4.23;2.30;;;;;;;;;;5030609;28;20749;-66
2023/05/07 14:36:27;;;;;;;5.20;2.90;;;;;;;;;;5027437;28;20195;-66
2023/05/07 14:38:55;;;;;;;8.17;2.93;;;;;;;;;;5009011;28;20215;-67
2023/05/07 14:41:26;;;;;;;5.17;2.47;;;;;;;;;;5007376;28;20279;-68
2023/05/07 14:43:58;;;;;;;6.50;2.83;;;;;;;;;;5011009;28;20228;-69
2023/05/07 14:46:54;;;;;;;4.90;2.70;;;;;;;;;;5013466;28;20790;-65
2023/05/07 14:49:23;;;;;;;5.70;3.10;;;;;;;;;;5027040;28;20203;-66
2023/05/07 14:51:57;;;;;;;5.43;3.20;;;;;;;;;;5008244;28;20532;-67
2023/05/07 14:54:39;;;;;;;7.20;2.83;;;;;;;;;;5028371;28;20705;-67
2023/05/07 14:57:16;;;;;;;5.43;2.90;;;;;;;;;;5009451;28;20265;-67
2023/05/07 14:59:52;;;;;;;6.30;2.60;;;;;;;;;;5010964;28;20217;-67
2023/05/07 15:02:18;;;;;;;4.73;2.80;;;;;;;;;;4993238;28;21111;-67
2023/05/07 15:04:48;;;;;;;7.10;2.77;;;;;;;;;;4988635;28;20206;-67
2023/05/07 15:07:15;;;;;;;5.40;3.00;;;;;;;;;;5025801;28;20190;-67
2023/05/07 15:09:42;;;;;;;5.50;2.90;;;;;;;;;;5025635;28;20662;-67
2023/05/07 15:12:09;;;;;;;8.60;3.20;;;;;;;;;;5025101;28;20223;-67
2023/05/07 15:14:37;;;;;;;6.47;2.83;;;;;;;;;;5026176;28;20199;-66
2023/05/07 15:17:04;;;;;;;7.13;3.47;;;;;;;;;;5019455;28;20551;-68
2023/05/07 15:19:32;;;;;;;7.00;2.87;;;;;;;;;;5010084;28;20305;-69
2023/05/07 15:22:02;;;;;;;3.60;2.47;;;;;;;;;;5026500;28;20216;-67
2023/05/07 15:24:31;;;;;;;5.33;2.60;;;;;;;;;;4994010;28;20203;-68
2023/05/07 15:26:59;;;;;;;3.87;2.30;;;;;;;;;;5020522;28;20195;-67